METAR Data
IDs: Format: Raw Decoded Include TAF

Data at: 1132 UTC 26 Sep 2018

KLLJ 261055Z AUTO 30003KT 10SM CLR 02/M07 A3030 RMK AO2 SLP238 T00171072
KLLJ 260955Z AUTO 00000KT 10SM CLR 03/M08 A3030 RMK AO2 SLP233 T00331078
KLLJ 260855Z AUTO 00000KT 10SM CLR 03/M07 A3031 RMK AO2 SLP242 T00281067 51009
KLLJ 260755Z AUTO 00000KT 10SM CLR 05/M07 A3030 RMK AO2 SLP236 T00501067
KLLJ 260655Z AUTO 30004KT 10SM CLR 03/M06 A3029 RMK AO2 SLP242 T00331061 402001028
KLLJ 260555Z AUTO 16003KT 10SM CLR 08/M05 A3028 RMK AO2 SLP231 T00781050 10194 20067 53014
KLLJ 260455Z AUTO 00000KT 10SM CLR 08/M06 A3026 RMK AO2 SLP229 T00781061
KLLJ 260355Z AUTO 00000KT 10SM CLR 09/M04 A3025 RMK AO2 SLP225 T00941044
KLLJ 260255Z AUTO 31005KT 10SM CLR 13/M06 A3023 RMK AO2 SLP221 T01281061 53012
KLLJ 260155Z AUTO 32004KT 10SM CLR 12/M03 A3022 RMK AO2 SLP226 T01171033
KLLJ 260055Z AUTO 29004KT 10SM CLR 14/M06 A3020 RMK AO2 SLP215 T01441061
KLLJ 252355Z AUTO 26004KT 10SM CLR 19/M07 A3019 RMK AO2 SLP198 T01891072 10200 20117 56012
KLLJ 252255Z AUTO 03003KT 10SM CLR 19/M04 A3020 RMK AO2 SLP200 T01941044
KLLJ 252155Z AUTO 04005KT 10SM CLR 19/M05 A3021 RMK AO2 SLP202 T01941050
KLLJ 252055Z AUTO 01004KT 10SM CLR 17/M04 A3024 RMK AO2 SLP211 T01721039 58022
KLLJ 251955Z AUTO 20004KT 10SM CLR 16/M04 A3026 RMK AO2 SLP225 T01561039
KLLJ 251855Z AUTO 00000KT 10SM CLR 13/M02 A3029 RMK AO2 SLP236 T01331022
KLLJ 251755Z AUTO VRB03KT 10SM CLR 12/M02 A3031 RMK AO2 SLP248 T01221022 10122 21028 58008
KLLJ 251655Z AUTO 07004KT 10SM CLR 09/M02 A3033 RMK AO2 SLP262 T00891022
KLLJ 251555Z AUTO 00000KT 10SM CLR 07/M03 A3034 RMK AO2 SLP259 T00671028
KLLJ 251455Z AUTO 00000KT 10SM CLR 04/M04 A3034 RMK AO2 SLP263 T00391039 53007
KLLJ 251355Z AUTO 00000KT 10SM CLR M01/M05 A3033 RMK AO2 SLP269 T10061050
KLLJ 251255Z AUTO 00000KT 10SM CLR M01/M06 A3032 RMK AO2 SLP262 T10111061
KLLJ 251155Z AUTO 00000KT 10SM CLR 02/M05 A3032 RMK AO2 SLP246 T00171050 10056 21006 53004
KLLJ 251055Z AUTO 00000KT 10SM CLR 02/M04 A3031 RMK AO2 SLP243 T00171039
KLLJ 250955Z AUTO 00000KT 10SM CLR 02/M05 A3030 RMK AO2 SLP241 T00221050
KLLJ 250855Z AUTO 00000KT 10SM CLR 04/M04 A3030 RMK AO2 SLP237 T00441044 53009
KLLJ 250755Z AUTO 00000KT 10SM CLR 04/M06 A3029 RMK AO2 SLP237 T00391056
KLLJ 250655Z AUTO 13003KT 10SM CLR 05/M04 A3028 RMK AO2 SLP229 T00501039 401780017
KLLJ 250555Z AUTO 00000KT 10SM CLR 04/M06 A3027 RMK AO2 SLP232 T00441056 10167 20044 51024
KLLJ 250455Z AUTO 34005KT 10SM CLR 05/M04 A3025 RMK AO2 SLP228 T00501044
KLLJ 250355Z AUTO 36007KT 10SM CLR 10/M03 A3021 RMK AO2 SLP212 T01001033
KLLJ 250255Z AUTO 32004KT 10SM CLR 10/M03 A3019 RMK AO2 SLP205 T01001028 53021
KLLJ 250155Z AUTO 34007KT 10SM CLR 11/M03 A3015 RMK AO2 SLP196 T01061028
KLLJ 250055Z AUTO 03008KT 10SM CLR 13/M03 A3012 RMK AO2 SLP183 T01331028
KLLJ 242355Z AUTO 02010G18KT 10SM CLR 17/M03 A3012 RMK AO2 SLP171 T01671033 10178 20128 53002